Attica, Indiana
Current Conditions -  °F | °C
As of 9:54 PM on Friday 24 Oct 2014 (Local Time) from KLAF Reporting Station
Few Clouds Few Clouds  
Wind Chill: 12°   Ceiling: Unl
Heat Index: 12°   Visibility: 10mi
Dew Point:   Wind: 3mph
Humidity: 86%   Direction: 230°SW
Pressure: 30"   Gusts: NA
Location:  40.29°N, 87.25°W
Report Text: KLAF 250154Z AUTO 23003KT 10SM FEW090 12/09 A3000 RMK AO2 SLP158 T01170094 TSNO
Loading
Personal Weather Stations






























Interactive Weather Map
Tropical Storm Tracking
New forecast layout! Learn more

10-Day Weather Forecast

Advertisements
Track Severe Weather on mobile